Time;durP1;ratioP1;P1;durP2;ratioP2;P2;SDS_P1;SDS_P2;PMS_P1;PMS_P2;Temp;Humidity;BMP_temperature;BMP_pressure;BME280_temperature;BME280_humidity;BME280_pressure;Samples;Min_cycle;Max_cycle;Signal;HPM_P1;HPM_P2
2021/10/20 00:01:36;;;;;;;20.80;17.92;;;;;;;;;;10306388;28;20064;-64
2021/10/20 00:06:34;;;;;;;22.85;17.05;;;;;;;;;;10309315;28;20081;-64
2021/10/20 00:11:33;;;;;;;20.25;18.10;;;;;;;;;;10306520;28;20072;-64
2021/10/20 00:16:32;;;;;;;20.15;17.30;;;;;;;;;;10304866;28;20079;-64
2021/10/20 00:21:31;;;;;;;22.15;17.73;;;;;;;;;;10305048;28;20075;-64
2021/10/20 00:26:29;;;;;;;20.17;17.63;;;;;;;;;;10305494;28;20072;-64
2021/10/20 00:31:27;;;;;;;20.35;17.75;;;;;;;;;;10303516;28;20056;-64
2021/10/20 00:36:27;;;;;;;21.17;17.48;;;;;;;;;;10303636;28;20169;-65
2021/10/20 00:41:28;;;;;;;18.27;16.33;;;;;;;;;;10297996;28;20076;-64
2021/10/20 00:46:27;;;;;;;20.45;16.52;;;;;;;;;;10300586;28;20079;-65
2021/10/20 00:51:27;;;;;;;19.25;17.20;;;;;;;;;;10300162;28;20057;-64
2021/10/20 00:56:26;;;;;;;18.85;16.17;;;;;;;;;;10302176;28;20068;-64
2021/10/20 01:01:24;;;;;;;18.30;16.40;;;;;;;;;;10303753;28;20494;-64
2021/10/20 01:06:23;;;;;;;18.35;16.20;;;;;;;;;;10305602;28;20057;-64
2021/10/20 01:11:22;;;;;;;19.52;17.45;;;;;;;;;;10301557;28;20040;-63
2021/10/20 01:16:21;;;;;;;23.35;16.92;;;;;;;;;;10300663;28;20068;-64
2021/10/20 01:21:21;;;;;;;20.17;17.08;;;;;;;;;;10297720;28;20057;-63
2021/10/20 01:26:19;;;;;;;19.13;17.05;;;;;;;;;;10294568;28;20073;-63
2021/10/20 01:31:18;;;;;;;19.85;16.42;;;;;;;;;;10307086;28;20072;-62
2021/10/20 01:36:16;;;;;;;19.65;17.58;;;;;;;;;;10316095;28;20052;-64
2021/10/20 01:41:16;;;;;;;18.92;16.95;;;;;;;;;;10307443;28;20427;-64
2021/10/20 01:46:14;;;;;;;27.20;17.52;;;;;;;;;;10302908;28;20076;-63
2021/10/20 01:51:13;;;;;;;21.85;17.88;;;;;;;;;;10300923;28;20045;-63
2021/10/20 01:56:12;;;;;;;19.63;16.48;;;;;;;;;;10300134;28;20460;-62
2021/10/20 02:01:12;;;;;;;20.50;15.80;;;;;;;;;;10284228;28;20069;-63
2021/10/20 02:06:12;;;;;;;18.83;16.42;;;;;;;;;;10304812;28;20072;-63
2021/10/20 02:11:11;;;;;;;17.88;16.05;;;;;;;;;;10304575;28;20126;-64
2021/10/20 02:16:09;;;;;;;19.40;17.15;;;;;;;;;;10302738;28;20484;-64
2021/10/20 02:21:09;;;;;;;18.33;16.48;;;;;;;;;;10301463;28;20076;-64
2021/10/20 02:26:07;;;;;;;19.02;16.08;;;;;;;;;;10300527;28;20052;-64
2021/10/20 02:31:05;;;;;;;17.85;15.57;;;;;;;;;;10299500;28;20075;-64
2021/10/20 02:36:04;;;;;;;17.85;16.02;;;;;;;;;;10261535;28;20456;-64
2021/10/20 02:41:04;;;;;;;20.63;16.52;;;;;;;;;;10234906;28;20088;-63
2021/10/20 02:46:02;;;;;;;21.77;17.40;;;;;;;;;;10274838;28;20068;-64
2021/10/20 02:51:01;;;;;;;18.33;16.33;;;;;;;;;;10293252;28;20061;-63
2021/10/20 02:55:59;;;;;;;17.25;15.45;;;;;;;;;;10296160;28;20076;-64
2021/10/20 03:00:59;;;;;;;20.63;16.48;;;;;;;;;;10300128;28;20065;-63
2021/10/20 03:05:57;;;;;;;19.73;17.35;;;;;;;;;;10302289;28;20075;-63
2021/10/20 03:10:56;;;;;;;19.15;17.02;;;;;;;;;;10313560;28;20059;-63
2021/10/20 03:15:54;;;;;;;21.80;18.13;;;;;;;;;;10305569;28;20065;-63
2021/10/20 03:20:53;;;;;;;18.48;16.48;;;;;;;;;;10300238;28;20502;-63
2021/10/20 03:25:52;;;;;;;18.33;16.45;;;;;;;;;;10300585;28;20068;-64
2021/10/20 03:30:50;;;;;;;19.10;15.50;;;;;;;;;;10307212;28;20068;-64
2021/10/20 03:35:48;;;;;;;22.13;17.15;;;;;;;;;;10313335;28;20525;-64
2021/10/20 03:40:48;;;;;;;20.77;17.73;;;;;;;;;;10303167;28;20517;-64
2021/10/20 03:46:06;;;;;;;19.25;17.13;;;;;;;;;;10297530;28;20073;-65
2021/10/20 03:51:05;;;;;;;20.42;17.48;;;;;;;;;;10300816;28;20156;-64
2021/10/20 03:56:05;;;;;;;18.67;16.77;;;;;;;;;;10302806;28;20079;-64
2021/10/20 04:01:03;;;;;;;20.30;18.17;;;;;;;;;;10312640;28;20068;-64
2021/10/20 04:06:02;;;;;;;19.33;17.25;;;;;;;;;;10321226;28;20064;-63
2021/10/20 04:11:00;;;;;;;17.73;15.63;;;;;;;;;;10309595;28;20525;-63
2021/10/20 04:15:59;;;;;;;18.50;16.45;;;;;;;;;;10309163;28;20064;-63
2021/10/20 04:20:58;;;;;;;19.60;16.35;;;;;;;;;;10314949;28;20528;-64
2021/10/20 04:25:56;;;;;;;20.35;17.13;;;;;;;;;;10320895;28;20486;-63
2021/10/20 04:30:56;;;;;;;22.77;16.70;;;;;;;;;;10312146;28;20080;-64
2021/10/20 04:35:55;;;;;;;21.23;18.92;;;;;;;;;;10302384;28;20076;-63
2021/10/20 04:40:54;;;;;;;20.00;17.65;;;;;;;;;;10304361;28;20524;-62
2021/10/20 04:45:53;;;;;;;20.13;16.90;;;;;;;;;;10317506;28;20063;-63
2021/10/20 04:50:52;;;;;;;22.10;17.45;;;;;;;;;;10318885;28;20071;-66
2021/10/20 04:55:52;;;;;;;19.67;17.25;;;;;;;;;;10302885;28;20073;-66
2021/10/20 05:00:50;;;;;;;27.42;20.92;;;;;;;;;;10299420;28;20076;-65
2021/10/20 05:05:49;;;;;;;22.80;17.20;;;;;;;;;;10305778;28;20076;-68
2021/10/20 05:10:47;;;;;;;20.05;17.02;;;;;;;;;;10307907;28;20068;-63
2021/10/20 05:15:47;;;;;;;21.00;18.70;;;;;;;;;;10274040;28;20076;-66
2021/10/20 05:20:47;;;;;;;27.58;21.27;;;;;;;;;;10278143;28;20072;-64
2021/10/20 05:25:45;;;;;;;19.45;16.70;;;;;;;;;;10281924;28;20083;-66
2021/10/20 05:30:43;;;;;;;22.25;18.60;;;;;;;;;;10293460;28;20067;-65
2021/10/20 05:35:43;;;;;;;20.58;17.63;;;;;;;;;;10295063;28;20144;-66
2021/10/20 05:40:41;;;;;;;21.45;17.58;;;;;;;;;;10297994;28;20120;-64
2021/10/20 05:45:40;;;;;;;22.23;17.42;;;;;;;;;;10296406;28;20194;-65
2021/10/20 05:50:38;;;;;;;23.42;18.80;;;;;;;;;;10295063;28;20099;-64
2021/10/20 05:55:40;;;;;;;24.17;20.25;;;;;;;;;;10296370;28;20071;-64
2021/10/20 06:00:39;;;;;;;32.22;19.77;;;;;;;;;;10301347;28;20065;-64
2021/10/20 06:05:37;;;;;;;20.23;18.02;;;;;;;;;;10302438;28;20076;-65
2021/10/20 06:10:36;;;;;;;21.30;17.95;;;;;;;;;;10301895;28;20069;-65
2021/10/20 06:15:35;;;;;;;22.10;19.05;;;;;;;;;;10300809;28;20083;-64
2021/10/20 06:20:34;;;;;;;24.08;18.15;;;;;;;;;;10300603;28;20087;-65
2021/10/20 06:25:32;;;;;;;23.35;18.60;;;;;;;;;;10289863;28;20083;-65
2021/10/20 06:30:31;;;;;;;23.55;20.30;;;;;;;;;;10299562;28;20080;-65
2021/10/20 06:35:31;;;;;;;26.00;18.75;;;;;;;;;;10276792;28;20092;-64
2021/10/20 06:40:31;;;;;;;29.60;20.40;;;;;;;;;;10298161;28;20083;-65
2021/10/20 06:45:29;;;;;;;25.88;20.55;;;;;;;;;;10293769;28;20473;-65
2021/10/20 06:50:27;;;;;;;30.58;19.00;;;;;;;;;;10294005;28;20429;-65
2021/10/20 06:55:27;;;;;;;30.35;19.30;;;;;;;;;;10299269;28;20127;-66
2021/10/20 07:00:26;;;;;;;22.17;19.20;;;;;;;;;;10297546;28;20071;-65
2021/10/20 07:05:24;;;;;;;29.48;21.50;;;;;;;;;;10311555;28;20170;-65
2021/10/20 07:10:22;;;;;;;26.63;17.98;;;;;;;;;;10313590;28;20345;-66
2021/10/20 07:15:22;;;;;;;26.42;18.50;;;;;;;;;;10310724;28;20072;-66
2021/10/20 07:20:20;;;;;;;22.63;18.77;;;;;;;;;;10302280;28;20072;-65
2021/10/20 07:25:19;;;;;;;27.25;20.27;;;;;;;;;;10310951;28;20474;-65
2021/10/20 07:30:18;;;;;;;21.48;19.17;;;;;;;;;;10313160;28;20076;-65
2021/10/20 07:35:18;;;;;;;28.52;22.98;;;;;;;;;;10311085;28;20041;-64
2021/10/20 07:40:17;;;;;;;24.77;21.42;;;;;;;;;;10304502;28;20065;-65
2021/10/20 07:45:17;;;;;;;25.13;21.75;;;;;;;;;;10305100;28;20480;-64
2021/10/20 07:50:16;;;;;;;27.48;24.15;;;;;;;;;;10305273;28;20067;-64
2021/10/20 07:55:16;;;;;;;30.27;25.10;;;;;;;;;;10307028;28;20049;-63
2021/10/20 08:00:15;;;;;;;24.42;20.90;;;;;;;;;;10302733;28;20429;-64
2021/10/20 08:05:14;;;;;;;25.38;21.45;;;;;;;;;;10303783;28;20074;-65
2021/10/20 08:10:13;;;;;;;23.00;20.58;;;;;;;;;;10306402;28;20492;-65
2021/10/20 08:15:14;;;;;;;21.88;19.48;;;;;;;;;;10308182;28;20068;-64
2021/10/20 08:20:13;;;;;;;24.27;18.17;;;;;;;;;;10304777;28;20493;-65
2021/10/20 08:25:12;;;;;;;28.33;19.98;;;;;;;;;;10304121;28;20106;-66
2021/10/20 08:30:16;;;;;;;28.80;23.40;;;;;;;;;;10306230;28;20045;-65
2021/10/20 08:35:17;;;;;;;30.03;23.03;;;;;;;;;;10303578;28;20494;-65
2021/10/20 08:40:16;;;;;;;24.50;21.08;;;;;;;;;;10317242;28;20084;-65
2021/10/20 08:45:14;;;;;;;24.73;21.98;;;;;;;;;;10318568;28;20069;-66
2021/10/20 08:50:14;;;;;;;27.90;23.27;;;;;;;;;;10315033;28;20084;-65
2021/10/20 08:55:16;;;;;;;22.33;20.05;;;;;;;;;;10301850;28;20463;-66
2021/10/20 09:00:15;;;;;;;24.15;20.80;;;;;;;;;;10302126;28;20092;-63
2021/10/20 09:05:14;;;;;;;29.75;26.67;;;;;;;;;;10302283;28;20091;-65
2021/10/20 09:10:14;;;;;;;33.53;21.85;;;;;;;;;;10299854;28;20068;-67
2021/10/20 09:15:17;;;;;;;27.90;22.95;;;;;;;;;;10299899;28;20304;-65
2021/10/20 09:20:19;;;;;;;26.52;22.42;;;;;;;;;;10302499;28;20504;-64
2021/10/20 09:25:19;;;;;;;24.42;21.85;;;;;;;;;;10303482;28;20453;-65
2021/10/20 09:30:17;;;;;;;25.48;22.15;;;;;;;;;;10302895;28;20072;-65
2021/10/20 09:35:15;;;;;;;22.75;20.27;;;;;;;;;;10301387;28;20068;-63
2021/10/20 09:40:14;;;;;;;22.73;20.33;;;;;;;;;;10300547;28;20090;-63
2021/10/20 09:45:15;;;;;;;20.83;18.65;;;;;;;;;;10300873;28;20067;-65
2021/10/20 09:50:14;;;;;;;22.25;19.40;;;;;;;;;;10299571;28;20067;-64
2021/10/20 09:55:16;;;;;;;22.63;19.63;;;;;;;;;;10304578;28;20068;-65
2021/10/20 10:00:16;;;;;;;20.08;17.58;;;;;;;;;;10305199;28;20533;-67
2021/10/20 10:05:14;;;;;;;20.95;18.23;;;;;;;;;;10314336;28;20482;-67
2021/10/20 10:10:12;;;;;;;21.42;19.13;;;;;;;;;;10315018;28;20079;-65
2021/10/20 10:15:11;;;;;;;23.00;19.20;;;;;;;;;;10312531;28;20072;-65
2021/10/20 10:20:29;;;;;;;21.90;19.35;;;;;;;;;;10307255;28;20091;-66
2021/10/20 10:25:32;;;;;;;20.38;17.42;;;;;;;;;;10313725;28;20068;-66
2021/10/20 10:30:46;;;;;;;22.88;17.55;;;;;;;;;;10310037;28;20071;-66
2021/10/20 10:35:45;;;;;;;23.98;18.92;;;;;;;;;;10296809;28;20061;-66
2021/10/20 10:40:44;;;;;;;19.73;17.05;;;;;;;;;;10297655;28;20080;-66
2021/10/20 10:45:43;;;;;;;20.23;18.13;;;;;;;;;;10297293;28;20144;-65
2021/10/20 10:50:43;;;;;;;21.35;17.42;;;;;;;;;;10300422;28;20080;-66
2021/10/20 10:56:01;;;;;;;26.55;22.08;;;;;;;;;;10294308;28;20473;-66
2021/10/20 11:00:59;;;;;;;23.90;17.73;;;;;;;;;;10291919;28;20568;-66
2021/10/20 11:05:59;;;;;;;22.80;20.48;;;;;;;;;;10296926;28;20067;-66
2021/10/20 11:10:59;;;;;;;19.17;17.17;;;;;;;;;;10296113;28;20052;-67
2021/10/20 11:15:57;;;;;;;20.75;18.63;;;;;;;;;;10294588;28;20052;-66
2021/10/20 11:20:56;;;;;;;20.55;16.23;;;;;;;;;;10295863;28;20088;-66
2021/10/20 11:25:59;;;;;;;22.88;17.63;;;;;;;;;;10291647;28;20490;-66
2021/10/20 11:31:05;;;;;;;19.02;17.02;;;;;;;;;;10290771;28;20806;-66
2021/10/20 11:36:04;;;;;;;26.85;18.38;;;;;;;;;;10295753;28;20068;-65
2021/10/20 11:41:02;;;;;;;18.38;16.48;;;;;;;;;;10295372;28;20486;-66
2021/10/20 11:46:02;;;;;;;16.55;14.85;;;;;;;;;;10295993;28;20064;-66
2021/10/20 11:51:01;;;;;;;15.02;12.98;;;;;;;;;;10291271;28;20071;-66
2021/10/20 11:56:00;;;;;;;17.27;13.27;;;;;;;;;;10291712;28;20066;-66
2021/10/20 12:01:00;;;;;;;14.35;12.82;;;;;;;;;;10291110;28;20069;-66
2021/10/20 12:05:59;;;;;;;14.68;13.18;;;;;;;;;;10297463;28;20065;-66
2021/10/20 12:10:58;;;;;;;13.93;12.52;;;;;;;;;;10295964;28;20064;-66
2021/10/20 12:15:57;;;;;;;13.90;10.98;;;;;;;;;;10294473;28;20085;-66
2021/10/20 12:20:56;;;;;;;12.77;11.52;;;;;;;;;;10296913;28;20095;-66
2021/10/20 12:25:56;;;;;;;12.95;10.32;;;;;;;;;;10301725;28;20077;-65
2021/10/20 12:30:54;;;;;;;15.77;12.18;;;;;;;;;;10311441;28;20067;-65
2021/10/20 12:35:53;;;;;;;14.20;11.93;;;;;;;;;;10318284;28;20064;-66
2021/10/20 12:40:51;;;;;;;15.13;10.88;;;;;;;;;;10310114;28;20531;-66
2021/10/20 12:45:51;;;;;;;18.50;12.15;;;;;;;;;;10305257;28;20092;-66
2021/10/20 12:50:49;;;;;;;13.00;9.43;;;;;;;;;;10303977;28;20251;-66
2021/10/20 12:55:47;;;;;;;14.65;10.90;;;;;;;;;;10303479;28;20087;-65
2021/10/20 13:00:46;;;;;;;11.98;9.93;;;;;;;;;;10287201;28;20087;-66
2021/10/20 13:05:47;;;;;;;13.10;9.50;;;;;;;;;;10298317;28;20075;-65
2021/10/20 13:10:45;;;;;;;12.05;9.50;;;;;;;;;;10308386;28;20428;-66
2021/10/20 13:15:43;;;;;;;12.07;10.68;;;;;;;;;;10316626;28;20071;-66
2021/10/20 13:20:42;;;;;;;11.55;9.90;;;;;;;;;;10311510;28;20080;-65
2021/10/20 13:25:42;;;;;;;13.27;11.85;;;;;;;;;;10301290;28;20186;-66
2021/10/20 13:30:41;;;;;;;17.60;13.85;;;;;;;;;;10300918;28;20490;-66
2021/10/20 13:35:39;;;;;;;11.45;10.10;;;;;;;;;;10298909;28;20521;-65
2021/10/20 13:40:38;;;;;;;10.60;9.30;;;;;;;;;;10302152;28;20084;-66
2021/10/20 13:45:38;;;;;;;12.18;10.35;;;;;;;;;;10297603;28;20075;-66
2021/10/20 13:50:36;;;;;;;11.05;9.93;;;;;;;;;;10298936;28;20065;-66
2021/10/20 13:55:35;;;;;;;34.55;15.77;;;;;;;;;;10299592;28;20076;-66
2021/10/20 14:00:34;;;;;;;11.70;10.60;;;;;;;;;;10299312;28;20172;-65
2021/10/20 14:05:36;;;;;;;23.38;20.73;;;;;;;;;;10301515;28;20068;-65
2021/10/20 14:10:35;;;;;;;10.07;9.02;;;;;;;;;;10312280;28;20071;-66
2021/10/20 14:15:34;;;;;;;27.08;21.80;;;;;;;;;;10314968;28;20132;-65
2021/10/20 14:20:34;;;;;;;22.17;19.40;;;;;;;;;;10308978;28;20525;-65
2021/10/20 14:25:32;;;;;;;20.70;13.70;;;;;;;;;;10297545;28;20079;-66
2021/10/20 14:30:31;;;;;;;18.35;15.68;;;;;;;;;;10300770;28;20537;-65
2021/10/20 14:35:29;;;;;;;18.83;16.92;;;;;;;;;;10301382;28;20068;-65
2021/10/20 14:40:29;;;;;;;21.10;16.70;;;;;;;;;;10295919;28;20079;-65
2021/10/20 14:45:27;;;;;;;94.72;23.70;;;;;;;;;;10297461;28;20067;-66
2021/10/20 14:50:27;;;;;;;28.50;18.33;;;;;;;;;;10297524;28;20068;-65
2021/10/20 14:55:31;;;;;;;34.92;25.77;;;;;;;;;;10296740;28;20068;-66
2021/10/20 15:00:29;;;;;;;62.90;43.05;;;;;;;;;;10299547;28;20548;-66
2021/10/20 15:05:28;;;;;;;60.30;35.85;;;;;;;;;;10298828;28;20072;-65
2021/10/20 15:10:26;;;;;;;42.95;32.00;;;;;;;;;;10297677;28;20071;-66
2021/10/20 15:15:28;;;;;;;56.05;34.60;;;;;;;;;;10297104;28;20067;-65
2021/10/20 15:20:38;;;;;;;104.25;44.03;;;;;;;;;;10296244;28;20695;-65
2021/10/20 15:25:37;;;;;;;86.68;48.42;;;;;;;;;;10295815;28;20072;-66
2021/10/20 15:30:38;;;;;;;80.75;56.95;;;;;;;;;;10301399;28;20069;-65
2021/10/20 15:35:41;;;;;;;80.10;59.78;;;;;;;;;;10302293;28;20103;-65
2021/10/20 15:40:41;;;;;;;73.23;54.83;;;;;;;;;;10298567;28;20095;-65
2021/10/20 15:45:41;;;;;;;66.10;47.90;;;;;;;;;;10298342;28;20065;-65
2021/10/20 15:50:42;;;;;;;54.40;39.92;;;;;;;;;;10298458;28;20576;-66
2021/10/20 15:55:41;;;;;;;60.13;39.22;;;;;;;;;;10299064;28;20081;-66
2021/10/20 16:00:41;;;;;;;60.80;41.03;;;;;;;;;;10302445;28;20073;-65
2021/10/20 16:05:39;;;;;;;49.92;38.80;;;;;;;;;;10305068;28;20148;-66
2021/10/20 16:10:38;;;;;;;56.83;38.03;;;;;;;;;;10303952;28;20079;-64
2021/10/20 16:15:38;;;;;;;47.15;39.22;;;;;;;;;;10311962;28;20072;-64
2021/10/20 16:20:38;;;;;;;45.47;38.10;;;;;;;;;;10317165;28;20116;-64
2021/10/20 16:25:37;;;;;;;40.22;33.13;;;;;;;;;;10318970;28;20064;-65
2021/10/20 16:30:36;;;;;;;48.08;34.95;;;;;;;;;;10312549;28;20095;-65
2021/10/20 16:35:35;;;;;;;38.03;33.53;;;;;;;;;;10300270;28;20091;-66
2021/10/20 16:40:35;;;;;;;38.72;34.63;;;;;;;;;;10302994;28;20497;-64
2021/10/20 16:45:36;;;;;;;32.50;28.08;;;;;;;;;;10315889;28;20521;-64
2021/10/20 16:50:36;;;;;;;47.50;36.13;;;;;;;;;;10318292;28;20068;-64
2021/10/20 16:55:36;;;;;;;54.38;40.03;;;;;;;;;;10315327;28;20045;-64
2021/10/20 17:00:35;;;;;;;34.85;28.95;;;;;;;;;;10258105;28;20069;-64
2021/10/20 17:05:34;;;;;;;30.77;27.48;;;;;;;;;;10258610;28;20403;-64
2021/10/20 17:10:32;;;;;;;26.50;23.25;;;;;;;;;;10257191;28;20179;-64
2021/10/20 17:15:32;;;;;;;24.63;21.88;;;;;;;;;;10263326;28;20037;-64
2021/10/20 17:20:32;;;;;;;22.05;19.73;;;;;;;;;;10256493;28;20088;-62
2021/10/20 17:25:30;;;;;;;22.20;19.48;;;;;;;;;;10254494;28;20083;-62
2021/10/20 17:30:29;;;;;;;18.02;16.10;;;;;;;;;;10250623;28;20069;-64
2021/10/20 17:35:43;;;;;;;19.25;17.35;;;;;;;;;;10248847;28;20075;-63
2021/10/20 17:40:42;;;;;;;16.55;14.65;;;;;;;;;;10250141;28;20076;-63
2021/10/20 17:45:41;;;;;;;20.23;16.95;;;;;;;;;;10247195;28;20071;-63
2021/10/20 17:50:40;;;;;;;16.65;14.80;;;;;;;;;;10244590;28;20525;-63
2021/10/20 17:55:40;;;;;;;16.30;14.70;;;;;;;;;;10245704;28;20080;-64
2021/10/20 18:00:38;;;;;;;15.90;14.30;;;;;;;;;;10248018;28;20299;-62
2021/10/20 18:05:37;;;;;;;14.73;13.10;;;;;;;;;;10232387;28;20072;-64
2021/10/20 18:10:35;;;;;;;14.00;12.63;;;;;;;;;;10244564;28;20079;-63
2021/10/20 18:15:35;;;;;;;14.68;13.10;;;;;;;;;;10249757;28;20473;-62
2021/10/20 18:20:35;;;;;;;15.18;13.57;;;;;;;;;;10247469;28;20084;-62
2021/10/20 18:25:33;;;;;;;16.45;14.43;;;;;;;;;;10247350;28;20076;-64
2021/10/20 18:30:32;;;;;;;14.70;13.18;;;;;;;;;;10242170;28;20081;-63
2021/10/20 18:35:32;;;;;;;23.33;13.20;;;;;;;;;;10247847;28;20100;-63
2021/10/20 18:40:34;;;;;;;16.33;13.32;;;;;;;;;;10243751;28;20076;-63
2021/10/20 18:45:33;;;;;;;16.52;13.25;;;;;;;;;;10245111;28;20072;-63
2021/10/20 18:50:35;;;;;;;29.80;15.30;;;;;;;;;;10248513;28;20072;-64
2021/10/20 18:55:33;;;;;;;15.18;13.65;;;;;;;;;;10239972;28;20367;-64
2021/10/20 19:00:37;;;;;;;18.20;15.75;;;;;;;;;;10237957;28;20104;-64
2021/10/20 19:05:40;;;;;;;15.82;14.13;;;;;;;;;;10239568;28;20072;-62
2021/10/20 19:10:39;;;;;;;17.50;15.52;;;;;;;;;;10246426;28;20075;-64
2021/10/20 19:15:40;;;;;;;19.20;16.70;;;;;;;;;;10249748;28;20069;-62
2021/10/20 19:20:44;;;;;;;22.27;17.35;;;;;;;;;;10246544;28;20065;-62
2021/10/20 19:25:42;;;;;;;20.35;15.93;;;;;;;;;;10242104;28;20482;-63
2021/10/20 19:30:41;;;;;;;20.23;17.40;;;;;;;;;;10248490;28;20080;-63
2021/10/20 19:35:40;;;;;;;19.85;16.40;;;;;;;;;;10250030;28;20061;-63
2021/10/20 19:40:40;;;;;;;23.40;18.52;;;;;;;;;;10251904;28;20641;-62
2021/10/20 19:45:38;;;;;;;15.82;14.15;;;;;;;;;;10259817;28;20068;-62
2021/10/20 19:50:36;;;;;;;17.60;13.77;;;;;;;;;;10251341;28;20064;-62
2021/10/20 19:55:36;;;;;;;15.13;13.48;;;;;;;;;;10258078;28;20602;-61
2021/10/20 20:00:36;;;;;;;13.80;12.13;;;;;;;;;;10258202;28;20818;-63
2021/10/20 20:05:35;;;;;;;13.75;12.32;;;;;;;;;;10245000;28;21583;-62
2021/10/20 20:10:33;;;;;;;15.45;12.95;;;;;;;;;;10252290;28;20526;-62
2021/10/20 20:15:32;;;;;;;14.35;12.95;;;;;;;;;;10248096;28;20167;-61
2021/10/20 20:20:32;;;;;;;13.65;11.60;;;;;;;;;;10249741;28;20157;-62
2021/10/20 20:25:33;;;;;;;11.38;10.27;;;;;;;;;;10247289;28;20085;-63
2021/10/20 20:30:32;;;;;;;11.57;10.38;;;;;;;;;;10255231;28;20514;-63
2021/10/20 20:35:33;;;;;;;11.77;10.65;;;;;;;;;;10256072;28;20065;-62
2021/10/20 20:40:32;;;;;;;11.65;10.45;;;;;;;;;;10253017;28;20156;-62
2021/10/20 20:45:30;;;;;;;13.73;10.90;;;;;;;;;;10251455;28;20120;-64
2021/10/20 20:50:28;;;;;;;14.68;11.07;;;;;;;;;;10250487;28;20088;-63
2021/10/20 20:55:28;;;;;;;11.57;10.43;;;;;;;;;;10256782;28;20135;-62
2021/10/20 21:00:27;;;;;;;12.98;10.35;;;;;;;;;;10255142;28;20514;-63
2021/10/20 21:05:25;;;;;;;12.40;11.20;;;;;;;;;;10247469;28;20084;-64
2021/10/20 21:10:23;;;;;;;12.20;10.30;;;;;;;;;;10250640;28;20061;-62
2021/10/20 21:15:23;;;;;;;14.15;12.13;;;;;;;;;;10240019;28;20076;-61
2021/10/20 21:20:23;;;;;;;15.32;11.32;;;;;;;;;;10238610;28;20076;-62
2021/10/20 21:25:21;;;;;;;13.50;11.40;;;;;;;;;;10242096;28;20560;-63
2021/10/20 21:30:20;;;;;;;12.38;10.73;;;;;;;;;;10242687;28;20076;-61
2021/10/20 21:35:19;;;;;;;11.57;10.45;;;;;;;;;;10236444;28;20466;-61
2021/10/20 21:40:18;;;;;;;12.65;11.38;;;;;;;;;;10240551;28;20085;-61
2021/10/20 21:45:16;;;;;;;12.68;11.48;;;;;;;;;;10235947;28;20077;-60
2021/10/20 21:50:16;;;;;;;15.27;11.80;;;;;;;;;;10238661;28;20061;-62
2021/10/20 21:55:17;;;;;;;13.38;12.07;;;;;;;;;;10242343;28;20709;-62
2021/10/20 22:00:18;;;;;;;16.17;12.40;;;;;;;;;;10247384;28;20072;-60
2021/10/20 22:05:16;;;;;;;13.45;12.15;;;;;;;;;;10240881;28;20069;-61
2021/10/20 22:10:16;;;;;;;14.00;11.55;;;;;;;;;;10240871;28;20076;-61
2021/10/20 22:15:15;;;;;;;12.75;11.52;;;;;;;;;;10241855;28;20072;-61
2021/10/20 22:20:15;;;;;;;12.95;11.40;;;;;;;;;;10246257;28;20073;-62
2021/10/20 22:25:13;;;;;;;16.42;14.65;;;;;;;;;;10242194;28;20076;-63
2021/10/20 22:30:27;;;;;;;13.32;11.80;;;;;;;;;;10240196;28;20069;-61
2021/10/20 22:35:26;;;;;;;14.88;11.73;;;;;;;;;;10239961;28;20100;-62
2021/10/20 22:40:25;;;;;;;13.13;10.98;;;;;;;;;;10241906;28;20072;-62
2021/10/20 22:45:26;;;;;;;13.13;11.57;;;;;;;;;;10238243;28;20073;-62
2021/10/20 22:50:27;;;;;;;15.13;12.38;;;;;;;;;;10240078;28;20467;-63
2021/10/20 22:55:25;;;;;;;12.25;10.95;;;;;;;;;;10247466;28;20100;-63
2021/10/20 23:00:24;;;;;;;12.38;11.18;;;;;;;;;;10244386;28;20763;-61
2021/10/20 23:05:22;;;;;;;11.98;10.52;;;;;;;;;;10241320;28;20083;-62
2021/10/20 23:10:22;;;;;;;12.77;10.32;;;;;;;;;;10239099;28;20076;-62
2021/10/20 23:15:20;;;;;;;13.65;10.70;;;;;;;;;;10241099;28;20488;-63
2021/10/20 23:20:18;;;;;;;11.18;10.07;;;;;;;;;;10241782;28;20072;-63
2021/10/20 23:25:17;;;;;;;11.40;10.30;;;;;;;;;;10241663;28;20068;-61
2021/10/20 23:30:16;;;;;;;14.73;10.85;;;;;;;;;;10235620;28;20490;-63
2021/10/20 23:35:15;;;;;;;11.82;10.63;;;;;;;;;;10234332;28;20455;-63
2021/10/20 23:40:14;;;;;;;14.18;12.18;;;;;;;;;;10234558;28;20085;-61
2021/10/20 23:45:13;;;;;;;12.65;11.45;;;;;;;;;;10232732;28;20089;-63
2021/10/20 23:50:12;;;;;;;11.70;10.50;;;;;;;;;;10236593;28;20033;-63
2021/10/20 23:55:11;;;;;;;13.07;11.45;;;;;;;;;;10295031;28;20517;-62
